TimeCDT,TemperatureF,Dew PointF,Humidity,Sea Level PressureIn,VisibilityMPH,Wind Direction,Wind SpeedMPH,Gust SpeedMPH,PrecipitationIn,Events,Conditions,WindDirDegrees,DateUTC
12:15 AM,74.3,72.0,92,30.00,10.0,Calm,Calm,-,N/A,,Clear,0,2013-08-19 05:15:00
12:35 AM,73.4,71.6,94,30.00,10.0,Calm,Calm,-,N/A,,Clear,0,2013-08-19 05:35:00
12:55 AM,73.6,71.6,93,30.00,10.0,Calm,Calm,-,N/A,,Clear,0,2013-08-19 05:55:00
1:15 AM,72.7,71.4,96,30.00,10.0,Calm,Calm,-,N/A,,Clear,0,2013-08-19 06:15:00
1:35 AM,73.0,71.6,95,30.00,10.0,Calm,Calm,-,N/A,,Clear,0,2013-08-19 06:35:00
1:55 AM,72.1,71.1,96,30.00,10.0,Calm,Calm,-,N/A,,Clear,0,2013-08-19 06:55:00
2:15 AM,72.5,71.1,95,30.00,10.0,Calm,Calm,-,N/A,,Clear,0,2013-08-19 07:15:00
2:35 AM,72.5,71.4,96,30.00,10.0,Calm,Calm,-,N/A,,Scattered Clouds,0,2013-08-19 07:35:00
2:55 AM,72.7,71.6,96,30.00,10.0,Calm,Calm,-,N/A,,Overcast,0,2013-08-19 07:55:00
3:15 AM,72.9,71.8,96,30.01,10.0,Calm,Calm,-,N/A,,Overcast,0,2013-08-19 08:15:00
3:35 AM,72.7,71.8,97,30.01,10.0,Calm,Calm,-,N/A,,Overcast,0,2013-08-19 08:35:00
3:55 AM,72.7,71.8,97,30.00,10.0,North,3.5,-,N/A,,Mostly Cloudy,360,2013-08-19 08:55:00
4:15 AM,72.7,71.8,97,30.00,10.0,Calm,Calm,-,N/A,,Mostly Cloudy,0,2013-08-19 09:15:00
4:35 AM,72.5,71.6,97,30.00,10.0,North,4.6,-,N/A,,Scattered Clouds,350,2013-08-19 09:35:00
4:55 AM,72.3,71.6,98,30.00,10.0,NNW,4.6,-,N/A,,Mostly Cloudy,340,2013-08-19 09:55:00
5:15 AM,72.1,71.6,98,30.00,10.0,Calm,Calm,-,N/A,,Overcast,0,2013-08-19 10:15:00
5:35 AM,72.0,71.6,99,30.00,10.0,North,4.6,-,N/A,,Overcast,360,2013-08-19 10:35:00
5:55 AM,72.0,71.6,99,30.00,10.0,Calm,Calm,-,N/A,,Overcast,0,2013-08-19 10:55:00
6:15 AM,72.0,71.6,99,30.01,10.0,NNW,4.6,-,N/A,,Overcast,340,2013-08-19 11:15:00
6:35 AM,72.0,71.6,99,30.01,7.0,Calm,Calm,-,N/A,,Overcast,0,2013-08-19 11:35:00
6:55 AM,71.8,71.4,99,30.02,7.0,North,-9999.0,-,N/A,,Overcast,0,2013-08-19 11:55:00
7:15 AM,72.0,71.6,99,30.02,10.0,North,-9999.0,-,N/A,,Overcast,0,2013-08-19 12:15:00
7:35 AM,72.1,71.6,98,30.03,10.0,Calm,Calm,-,N/A,,Overcast,0,2013-08-19 12:35:00
7:55 AM,72.5,71.6,97,30.03,10.0,North,-9999.0,-,N/A,,Overcast,0,2013-08-19 12:55:00
8:15 AM,73.0,71.6,95,30.04,10.0,North,-9999.0,-,N/A,,Overcast,0,2013-08-19 13:15:00
8:35 AM,73.4,71.6,94,30.04,10.0,Calm,Calm,-,N/A,,Overcast,0,2013-08-19 13:35:00
8:55 AM,74.3,71.8,92,30.05,10.0,Calm,Calm,-,N/A,,Overcast,0,2013-08-19 13:55:00
9:15 AM,75.2,71.6,89,30.05,10.0,ENE,3.5,-,N/A,,Overcast,70,2013-08-19 14:15:00
9:35 AM,75.2,71.8,89,30.05,10.0,Calm,Calm,-,N/A,,Overcast,0,2013-08-19 14:35:00
9:55 AM,75.7,71.8,87,30.05,10.0,Calm,Calm,-,N/A,,Overcast,0,2013-08-19 14:55:00
10:15 AM,76.5,71.6,85,30.05,10.0,Calm,Calm,-,N/A,,Overcast,0,2013-08-19 15:15:00
10:35 AM,77.7,72.0,82,30.05,10.0,Calm,Calm,-,N/A,,Mostly Cloudy,0,2013-08-19 15:35:00
10:55 AM,78.4,72.0,80,30.05,10.0,Calm,Calm,-,N/A,,Scattered Clouds,0,2013-08-19 15:55:00
11:15 AM,79.3,72.3,79,30.05,10.0,Calm,Calm,-,N/A,,Scattered Clouds,0,2013-08-19 16:15:00
11:35 AM,79.3,72.0,78,30.05,10.0,Calm,Calm,-,N/A,,Scattered Clouds,0,2013-08-19 16:35:00
11:55 AM,80.2,72.0,76,30.04,10.0,Calm,Calm,-,N/A,,Scattered Clouds,0,2013-08-19 16:55:00
12:15 PM,81.9,71.8,71,30.04,10.0,Calm,Calm,-,N/A,,Clear,0,2013-08-19 17:15:00
12:35 PM,81.9,70.5,68,30.03,10.0,Calm,Calm,-,N/A,,Clear,0,2013-08-19 17:35:00
12:55 PM,82.6,70.3,66,30.03,10.0,Calm,Calm,-,N/A,,Clear,0,2013-08-19 17:55:00
1:15 PM,82.9,71.1,67,30.02,10.0,Calm,Calm,-,N/A,,Mostly Cloudy,0,2013-08-19 18:15:00
1:35 PM,83.3,71.4,67,30.02,10.0,Calm,Calm,-,N/A,,Overcast,0,2013-08-19 18:35:00
1:55 PM,84.2,72.0,67,30.01,10.0,WSW,3.5,-,N/A,,Mostly Cloudy,250,2013-08-19 18:55:00
2:15 PM,85.5,72.7,65,30.00,10.0,North,3.5,-,N/A,,Mostly Cloudy,350,2013-08-19 19:15:00
2:35 PM,86.4,72.3,63,30.00,10.0,NE,4.6,-,N/A,,Overcast,50,2013-08-19 19:35:00
2:55 PM,86.2,73.4,66,29.99,10.0,WNW,3.5,-,N/A,,Scattered Clouds,290,2013-08-19 19:55:00
3:15 PM,85.1,72.5,66,29.98,10.0,Calm,Calm,-,N/A,,Scattered Clouds,0,2013-08-19 20:15:00
3:35 PM,85.1,72.7,66,29.98,10.0,Calm,Calm,-,N/A,,Scattered Clouds,0,2013-08-19 20:35:00
3:55 PM,86.9,73.0,63,29.98,10.0,West,4.6,-,N/A,,Scattered Clouds,280,2013-08-19 20:55:00
4:15 PM,86.2,72.7,64,29.97,10.0,Calm,Calm,-,N/A,,Scattered Clouds,0,2013-08-19 21:15:00
4:35 PM,87.1,73.0,63,29.97,10.0,NNW,5.8,-,N/A,Thunderstorm,Scattered Clouds,340,2013-08-19 21:35:00
4:55 PM,86.4,72.7,64,29.98,10.0,SSE,13.8,21.9,N/A,,Mostly Cloudy,160,2013-08-19 21:55:00
5:15 PM,79.9,73.2,80,29.99,10.0,SE,8.1,-,N/A,Thunderstorm,Mostly Cloudy,140,2013-08-19 22:15:00
5:35 PM,78.8,72.7,81,29.98,10.0,SSE,6.9,-,N/A,Thunderstorm,Mostly Cloudy,150,2013-08-19 22:35:00
5:55 PM,78.6,72.3,81,29.98,10.0,East,4.6,-,N/A,,Overcast,100,2013-08-19 22:55:00
6:15 PM,77.9,72.1,82,29.98,10.0,Calm,Calm,-,N/A,,Overcast,0,2013-08-19 23:15:00
6:35 PM,78.1,72.9,84,29.98,10.0,Calm,Calm,-,N/A,,Mostly Cloudy,0,2013-08-19 23:35:00
6:55 PM,78.3,73.4,85,29.98,10.0,East,3.5,-,N/A,,Mostly Cloudy,100,2013-08-19 23:55:00
7:15 PM,77.9,73.4,86,29.98,10.0,Calm,Calm,-,N/A,,Scattered Clouds,0,2013-08-20 00:15:00
7:35 PM,77.2,73.4,88,29.98,10.0,Calm,Calm,-,N/A,,Clear,0,2013-08-20 00:35:00
7:55 PM,76.6,73.4,90,29.98,10.0,Calm,Calm,-,N/A,,Clear,0,2013-08-20 00:55:00
8:15 PM,76.6,73.6,90,29.98,10.0,Calm,Calm,-,N/A,,Clear,0,2013-08-20 01:15:00
8:35 PM,76.5,73.4,90,29.97,10.0,Calm,Calm,-,N/A,,Clear,0,2013-08-20 01:35:00
8:55 PM,76.5,73.0,89,29.98,10.0,Calm,Calm,-,N/A,,Clear,0,2013-08-20 01:55:00
9:15 PM,74.7,72.7,94,29.98,10.0,Calm,Calm,-,N/A,,Clear,0,2013-08-20 02:15:00
9:35 PM,74.8,72.9,94,29.99,10.0,Calm,Calm,-,N/A,,Clear,0,2013-08-20 02:35:00
9:55 PM,74.5,72.9,95,30.00,10.0,Calm,Calm,-,N/A,,Clear,0,2013-08-20 02:55:00
10:15 PM,74.3,72.7,95,30.00,10.0,Calm,Calm,-,N/A,,Clear,0,2013-08-20 03:15:00
10:35 PM,73.4,72.3,96,30.00,10.0,Calm,Calm,-,N/A,,Clear,0,2013-08-20 03:35:00
10:55 PM,73.8,72.5,96,30.01,10.0,Calm,Calm,-,N/A,,Clear,0,2013-08-20 03:55:00
11:15 PM,74.1,73.0,96,30.01,10.0,Calm,Calm,-,N/A,,Clear,0,2013-08-20 04:15:00
11:35 PM,73.4,72.5,97,30.00,10.0,Calm,Calm,-,N/A,,Clear,0,2013-08-20 04:35:00
11:55 PM,73.4,72.3,96,30.00,10.0,Calm,Calm,-,N/A,,Clear,0,2013-08-20 04:55:00